Wetterdaten: aktuell Montag, 25.09.2017 02:40
Datum Zeit Temp. A. Feuchte A. Luftdruck Regen Wind Richtung Richtung Taupunkt Windchill Windben
25.09.2017 02:40 7,1 C 94 % 1020,0 hPa 0,0 l/m 0,6 km/h (0 Bft) O-NO 74 6,2 C 7,1 C 3,2 km/h (1 Bft)
25.09.2017 02:35 7,1 C 94 % 1019,9 hPa 0,0 l/m 0,0 km/h (0 Bft) O-NO 74 6,2 C 7,1 C 0,0 km/h (0 Bft)
25.09.2017 02:30 7,1 C 93 % 1020,0 hPa 0,0 l/m 0,0 km/h (0 Bft) O-NO 74 6,0 C 7,1 C 0,0 km/h (0 Bft)
25.09.2017 02:25 7,1 C 93 % 1020,0 hPa 0,0 l/m 0,1 km/h (0 Bft) O-NO 74 6,0 C 7,1 C 1,6 km/h (1 Bft)
25.09.2017 02:20 7,2 C 93 % 1020,0 hPa 0,0 l/m 0,4 km/h (0 Bft) O-NO 74 6,1 C 7,2 C 1,6 km/h (1 Bft)
25.09.2017 02:15 7,2 C 93 % 1020,0 hPa 0,0 l/m 0,1 km/h (0 Bft) O-NO 74 6,1 C 7,2 C 1,6 km/h (1 Bft)
25.09.2017 02:10 7,2 C 93 % 1020,1 hPa 0,0 l/m 1,1 km/h (1 Bft) O-NO 74 6,1 C 7,2 C 3,2 km/h (1 Bft)
25.09.2017 02:05 7,3 C 93 % 1020,1 hPa 0,0 l/m 3,1 km/h (1 Bft) O-NO 74 6,2 C 7,3 C 4,8 km/h (1 Bft)
25.09.2017 02:00 7,4 C 93 % 1020,1 hPa 0,0 l/m 3,2 km/h (1 Bft) O-NO 74 6,3 C 7,4 C 4,8 km/h (1 Bft)
25.09.2017 01:55 7,4 C 93 % 1020,1 hPa 0,0 l/m 3,3 km/h (1 Bft) O-NO 74 6,3 C 7,4 C 4,8 km/h (1 Bft)
25.09.2017 01:50 7,5 C 93 % 1020,1 hPa 0,0 l/m 3,1 km/h (1 Bft) O-NO 74 6,4 C 7,5 C 4,8 km/h (1 Bft)
25.09.2017 01:45 7,6 C 93 % 1020,1 hPa 0,0 l/m 4,3 km/h (1 Bft) O-NO 74 6,5 C 7,6 C 6,4 km/h (2 Bft)
25.09.2017 01:40 7,7 C 93 % 1020,2 hPa 0,0 l/m 5,0 km/h (1 Bft) O-NO 74 6,6 C 7,7 C 6,4 km/h (2 Bft)
25.09.2017 01:35 7,7 C 93 % 1020,2 hPa 0,0 l/m 4,1 km/h (1 Bft) O-NO 74 6,6 C 7,7 C 4,8 km/h (1 Bft)
25.09.2017 01:30 7,8 C 93 % 1020,3 hPa 0,0 l/m 3,5 km/h (1 Bft) O-NO 74 6,7 C 7,8 C 4,8 km/h (1 Bft)
25.09.2017 01:25 7,8 C 93 % 1020,3 hPa 0,0 l/m 4,6 km/h (1 Bft) O-NO 74 6,7 C 7,8 C 6,4 km/h (2 Bft)
25.09.2017 01:20 7,8 C 93 % 1020,4 hPa 0,0 l/m 5,0 km/h (1 Bft) O-NO 74 6,7 C 7,8 C 6,4 km/h (2 Bft)
25.09.2017 01:15 7,9 C 93 % 1020,4 hPa 0,0 l/m 5,4 km/h (2 Bft) O-NO 74 6,8 C 7,9 C 6,4 km/h (2 Bft)
25.09.2017 01:10 8,0 C 92 % 1020,3 hPa 0,0 l/m 4,4 km/h (1 Bft) O-NO 74 6,8 C 8,0 C 4,8 km/h (1 Bft)
25.09.2017 01:05 8,1 C 93 % 1020,4 hPa 0,0 l/m 3,7 km/h (1 Bft) O-NO 74 7,0 C 8,1 C 4,8 km/h (1 Bft)
25.09.2017 01:00 8,1 C 93 % 1020,5 hPa 0,0 l/m 1,9 km/h (1 Bft) O-NO 74 7,0 C 8,1 C 3,2 km/h (1 Bft)
25.09.2017 00:55 8,1 C 93 % 1020,5 hPa 0,0 l/m 2,4 km/h (1 Bft) O-NO 74 7,0 C 8,1 C 3,2 km/h (1 Bft)
25.09.2017 00:50 8,1 C 92 % 1020,5 hPa 0,0 l/m 3,5 km/h (1 Bft) O-NO 74 6,9 C 8,1 C 4,8 km/h (1 Bft)
25.09.2017 00:46 8,0 C 92 % 1020,4 hPa 0,0 l/m 3,5 km/h (1 Bft) O-NO 74 6,8 C 8,0 C 4,8 km/h (1 Bft)
25.09.2017 00:40 8,0 C 91 % 1020,4 hPa 0,0 l/m 0,2 km/h (0 Bft) O-NO 74 6,6 C 8,0 C 1,6 km/h (1 Bft)
25.09.2017 00:35 8,0 C 90 % 1020,4 hPa 0,0 l/m 0,0 km/h (0 Bft) O-NO 74 6,5 C 8,0 C 0,0 km/h (0 Bft)
25.09.2017 00:30 8,0 C 90 % 1020,4 hPa 0,0 l/m 0,0 km/h (0 Bft) O-NO 74 6,5 C 8,0 C 0,0 km/h (0 Bft)
25.09.2017 00:25 8,1 C 89 % 1020,5 hPa 0,0 l/m 1,0 km/h (0 Bft) O-NO 74 6,4 C 8,1 C 3,2 km/h (1 Bft)
25.09.2017 00:20 8,4 C 90 % 1020,5 hPa 0,0 l/m 3,0 km/h (1 Bft) O-NO 74 6,9 C 8,4 C 4,8 km/h (1 Bft)
25.09.2017 00:15 8,4 C 90 % 1020,5 hPa 0,0 l/m 3,6 km/h (1 Bft) O-NO 74 6,9 C 8,4 C 4,8 km/h (1 Bft)
25.09.2017 00:10 8,6 C 89 % 1020,5 hPa 0,0 l/m 4,8 km/h (1 Bft) O-NO 74 6,9 C 8,6 C 6,4 km/h (2 Bft)
25.09.2017 00:05 8,6 C 90 % 1020,6 hPa 0,0 l/m 4,0 km/h (1 Bft) NO 55 7,1 C 8,6 C 6,4 km/h (2 Bft)
25.09.2017 00:00 8,7 C 89 % 1020,6 hPa 0,0 l/m 3,4 km/h (1 Bft) NO 55 7,0 C 8,7 C 4,8 km/h (1 Bft)
24.09.2017 23:55 8,8 C 89 % 1020,6 hPa 0,0 l/m 3,3 km/h (1 Bft) NO 55 7,1 C 8,8 C 4,8 km/h (1 Bft)
24.09.2017 23:50 8,9 C 89 % 1020,7 hPa 0,0 l/m 0,0 km/h (0 Bft) NO 55 7,2 C 8,9 C 0,0 km/h (0 Bft)
24.09.2017 23:46 9,0 C 88 % 1020,7 hPa 0,0 l/m 0,3 km/h (0 Bft) NO 55 7,1 C 9,0 C 1,6 km/h (1 Bft)
24.09.2017 23:40 9,1 C 89 % 1020,8 hPa 0,0 l/m 1,1 km/h (1 Bft) NO 55 7,4 C 9,1 C 3,2 km/h (1 Bft)
24.09.2017 23:35 9,2 C 89 % 1020,8 hPa 0,0 l/m 0,5 km/h (0 Bft) NO 55 7,5 C 9,2 C 1,6 km/h (1 Bft)
24.09.2017 23:30 9,3 C 88 % 1020,8 hPa 0,0 l/m 0,0 km/h (0 Bft) NO 55 7,4 C 9,3 C 0,0 km/h (0 Bft)
24.09.2017 23:26 9,3 C 88 % 1020,8 hPa 0,0 l/m 1,8 km/h (1 Bft) NO 55 7,4 C 9,3 C 4,8 km/h (1 Bft)
24.09.2017 23:20 9,6 C 87 % 1020,8 hPa 0,0 l/m 4,0 km/h (1 Bft) NO 55 7,5 C 9,6 C 4,8 km/h (1 Bft)
24.09.2017 23:15 9,8 C 87 % 1020,8 hPa 0,0 l/m 3,1 km/h (1 Bft) NO 55 7,7 C 9,8 C 4,8 km/h (1 Bft)
24.09.2017 23:10 10,0 C 86 % 1020,8 hPa 0,0 l/m 0,0 km/h (0 Bft) NO 55 7,8 C 10,0 C 0,0 km/h (0 Bft)
24.09.2017 23:05 10,2 C 85 % 1020,9 hPa 0,0 l/m 1,5 km/h (1 Bft) NO 55 7,8 C 10,2 C 3,2 km/h (1 Bft)
24.09.2017 23:00 10,3 C 85 % 1020,9 hPa 0,0 l/m 1,4 km/h (1 Bft) NO 55 7,9 C 10,3 C 3,2 km/h (1 Bft)
24.09.2017 22:56 10,4 C 84 % 1020,9 hPa 0,0 l/m 0,1 km/h (0 Bft) NO 55 7,8 C 10,4 C 1,6 km/h (1 Bft)
24.09.2017 22:50 10,6 C 85 % 1020,9 hPa 0,0 l/m 0,6 km/h (0 Bft) NO 55 8,2 C 10,6 C 3,2 km/h (1 Bft)
24.09.2017 22:45 10,8 C 85 % 1021,0 hPa 0,0 l/m 0,8 km/h (0 Bft) NO 55 8,4 C 10,8 C 4,8 km/h (1 Bft)
24.09.2017 22:41 10,9 C 84 % 1020,9 hPa 0,0 l/m 0,4 km/h (0 Bft) NO 55 8,3 C 10,9 C 1,6 km/h (1 Bft)
24.09.2017 22:35 11,0 C 85 % 1021,0 hPa 0,0 l/m 0,8 km/h (0 Bft) NO 55 8,6 C 11,0 C 4,8 km/h (1 Bft)
24.09.2017 22:30 11,1 C 85 % 1020,9 hPa 0,0 l/m 2,5 km/h (1 Bft) NO 55 8,7 C 11,1 C 6,4 km/h (2 Bft)
24.09.2017 22:25 11,1 C 85 % 1021,0 hPa 0,0 l/m 2,5 km/h (1 Bft) NO 55 8,7 C 11,1 C 8,0 km/h (2 Bft)
24.09.2017 22:20 11,1 C 85 % 1021,0 hPa 0,0 l/m 5,8 km/h (2 Bft) NO 55 8,7 C 11,1 C 8,0 km/h (2 Bft)
24.09.2017 22:15 11,2 C 84 % 1020,9 hPa 0,0 l/m 6,2 km/h (2 Bft) O-NO 58 8,6 C 11,2 C 9,7 km/h (2 Bft)
24.09.2017 22:10 11,4 C 84 % 1021,0 hPa 0,0 l/m 4,0 km/h (1 Bft) O-NO 70 8,8 C 11,4 C 6,4 km/h (2 Bft)
24.09.2017 22:05 11,5 C 83 % 1021,0 hPa 0,0 l/m 2,6 km/h (1 Bft) O-NO 67 8,7 C 11,5 C 4,8 km/h (1 Bft)
24.09.2017 22:01 11,6 C 84 % 1021,0 hPa 0,0 l/m 3,3 km/h (1 Bft) O-NO 67 9,0 C 11,6 C 4,8 km/h (1 Bft)
24.09.2017 21:55 11,7 C 84 % 1021,1 hPa 0,0 l/m 4,3 km/h (1 Bft) O-NO 67 9,1 C 11,7 C 6,4 km/h (2 Bft)
24.09.2017 21:50 11,8 C 83 % 1021,0 hPa 0,0 l/m 5,6 km/h (2 Bft) O-NO 67 9,0 C 11,8 C 9,7 km/h (2 Bft)
24.09.2017 21:45 11,9 C 83 % 1021,0 hPa 0,0 l/m 6,1 km/h (2 Bft) O-NO 65 9,1 C 11,9 C 8,0 km/h (2 Bft)
24.09.2017 21:41 12,1 C 83 % 1020,9 hPa 0,0 l/m 7,0 km/h (2 Bft) O-NO 64 9,3 C 11,7 C 9,7 km/h (2 Bft)
24.09.2017 21:35 12,2 C 84 % 1021,0 hPa 0,0 l/m 5,6 km/h (2 Bft) O-NO 65 9,6 C 12,2 C 8,0 km/h (2 Bft)
24.09.2017 21:30 12,3 C 83 % 1021,0 hPa 0,0 l/m 5,2 km/h (1 Bft) O-NO 67 9,5 C 12,3 C 6,4 km/h (2 Bft)
24.09.2017 21:25 12,4 C 83 % 1021,0 hPa 0,0 l/m 4,8 km/h (1 Bft) O-NO 65 9,6 C 12,4 C 8,0 km/h (2 Bft)
24.09.2017 21:20 12,4 C 83 % 1021,0 hPa 0,0 l/m 4,6 km/h (1 Bft) NO 51 9,6 C 12,4 C 6,4 km/h (2 Bft)
24.09.2017 21:15 12,5 C 82 % 1021,0 hPa 0,0 l/m 3,7 km/h (1 Bft) NO 51 9,5 C 12,5 C 6,4 km/h (2 Bft)
24.09.2017 21:10 12,6 C 82 % 1021,0 hPa 0,0 l/m 3,4 km/h (1 Bft) NO 41 9,6 C 12,6 C 6,4 km/h (2 Bft)
24.09.2017 21:05 12,7 C 82 % 1021,0 hPa 0,0 l/m 3,8 km/h (1 Bft) NO 42 9,7 C 12,7 C 8,0 km/h (2 Bft)
24.09.2017 21:00 12,7 C 82 % 1021,0 hPa 0,0 l/m 2,6 km/h (1 Bft) O-NO 57 9,7 C 12,7 C 4,8 km/h (1 Bft)
24.09.2017 20:55 12,8 C 81 % 1021,0 hPa 0,0 l/m 3,7 km/h (1 Bft) O-NO 57 9,6 C 12,8 C 8,0 km/h (2 Bft)
24.09.2017 20:50 12,8 C 81 % 1021,0 hPa 0,0 l/m 3,6 km/h (1 Bft) N-NO 32 9,6 C 12,8 C 6,4 km/h (2 Bft)
24.09.2017 20:45 12,9 C 82 % 1020,9 hPa 0,0 l/m 4,2 km/h (1 Bft) N-NO 33 9,9 C 12,9 C 8,0 km/h (2 Bft)
24.09.2017 20:41 13,0 C 82 % 1020,9 hPa 0,0 l/m 2,4 km/h (1 Bft) NO 35 10,0 C 13,0 C 6,4 km/h (2 Bft)
24.09.2017 20:35 13,1 C 82 % 1020,9 hPa 0,0 l/m 2,5 km/h (1 Bft) NO 35 10,1 C 13,1 C 6,4 km/h (2 Bft)
24.09.2017 20:30 13,1 C 82 % 1020,8 hPa 0,0 l/m 2,9 km/h (1 Bft) NO 35 10,1 C 13,1 C 6,4 km/h (2 Bft)
24.09.2017 20:26 13,2 C 82 % 1020,9 hPa 0,0 l/m 3,8 km/h (1 Bft) NO 35 10,2 C 13,2 C 8,0 km/h (2 Bft)
24.09.2017 20:20 13,2 C 82 % 1020,9 hPa 0,0 l/m 4,2 km/h (1 Bft) NO 42 10,2 C 13,2 C 8,0 km/h (2 Bft)
24.09.2017 20:15 13,3 C 81 % 1020,8 hPa 0,0 l/m 3,0 km/h (1 Bft) NO 38 10,1 C 13,3 C 6,4 km/h (2 Bft)
24.09.2017 20:10 13,4 C 81 % 1020,9 hPa 0,0 l/m 3,2 km/h (1 Bft) N-NO 32 10,2 C 13,4 C 6,4 km/h (2 Bft)
24.09.2017 20:05 13,4 C 81 % 1020,9 hPa 0,0 l/m 3,3 km/h (1 Bft) N-NO 32 10,2 C 13,4 C 6,4 km/h (2 Bft)
24.09.2017 20:00 13,5 C 81 % 1020,8 hPa 0,0 l/m 3,2 km/h (1 Bft) N-NO 32 10,3 C 13,5 C 8,0 km/h (2 Bft)
24.09.2017 19:55 13,5 C 81 % 1020,8 hPa 0,0 l/m 3,3 km/h (1 Bft) N-NO 32 10,3 C 13,5 C 6,4 km/h (2 Bft)
24.09.2017 19:51 13,6 C 80 % 1020,7 hPa 0,0 l/m 2,6 km/h (1 Bft) N-NO 32 10,2 C 13,6 C 6,4 km/h (2 Bft)
24.09.2017 19:45 13,6 C 80 % 1020,6 hPa 0,0 l/m 3,2 km/h (1 Bft) N-NO 30 10,2 C 13,6 C 8,0 km/h (2 Bft)
24.09.2017 19:40 13,7 C 80 % 1020,6 hPa 0,0 l/m 4,8 km/h (1 Bft) N-NO 33 10,3 C 13,7 C 9,7 km/h (2 Bft)
24.09.2017 19:35 13,8 C 80 % 1020,6 hPa 0,0 l/m 4,0 km/h (1 Bft) N-NO 18 10,4 C 13,8 C 6,4 km/h (2 Bft)
24.09.2017 19:31 13,8 C 80 % 1020,6 hPa 0,0 l/m 4,9 km/h (1 Bft) NO 52 10,4 C 13,8 C 6,4 km/h (2 Bft)
24.09.2017 19:25 14,0 C 79 % 1020,5 hPa 0,0 l/m 5,8 km/h (2 Bft) NO 54 10,4 C 14,0 C 12,9 km/h (3 Bft)
24.09.2017 19:20 14,1 C 79 % 1020,6 hPa 0,0 l/m 2,0 km/h (1 Bft) N-NW 331 10,5 C 14,1 C 3,2 km/h (1 Bft)
24.09.2017 19:16 14,2 C 78 % 1020,5 hPa 0,0 l/m 1,0 km/h (0 Bft) N-NW 331 10,4 C 14,2 C 3,2 km/h (1 Bft)
24.09.2017 19:10 14,3 C 79 % 1020,5 hPa 0,0 l/m 0,5 km/h (0 Bft) N-NW 331 10,7 C 14,3 C 3,2 km/h (1 Bft)
24.09.2017 19:05 14,3 C 78 % 1020,5 hPa 0,0 l/m 0,7 km/h (0 Bft) N-NW 331 10,5 C 14,3 C 3,2 km/h (1 Bft)
24.09.2017 19:00 14,4 C 78 % 1020,5 hPa 0,0 l/m 0,9 km/h (0 Bft) N-NW 331 10,6 C 14,4 C 3,2 km/h (1 Bft)
24.09.2017 18:55 14,4 C 77 % 1020,4 hPa 0,0 l/m 0,5 km/h (0 Bft) N-NW 331 10,4 C 14,4 C 3,2 km/h (1 Bft)
24.09.2017 18:50 14,5 C 77 % 1020,4 hPa 0,0 l/m 0,6 km/h (0 Bft) N-NW 331 10,5 C 14,5 C 3,2 km/h (1 Bft)
24.09.2017 18:45 14,6 C 77 % 1020,4 hPa 0,0 l/m 0,3 km/h (0 Bft) N-NW 331 10,6 C 14,6 C 3,2 km/h (1 Bft)
24.09.2017 18:40 14,6 C 77 % 1020,3 hPa 0,0 l/m 0,2 km/h (0 Bft) N-NW 331 10,6 C 14,6 C 1,6 km/h (1 Bft)
24.09.2017 18:35 14,6 C 77 % 1020,2 hPa 0,0 l/m 0,0 km/h (0 Bft) N-NW 331 10,6 C 14,6 C 1,6 km/h (1 Bft)
24.09.2017 18:30 14,6 C 77 % 1020,3 hPa 0,0 l/m 0,6 km/h (0 Bft) N-NW 331 10,6 C 14,6 C 3,2 km/h (1 Bft)
24.09.2017 18:25 14,7 C 77 % 1020,2 hPa 0,0 l/m 1,4 km/h (1 Bft) N-NW 331 10,7 C 14,7 C 3,2 km/h (1 Bft)
24.09.2017 18:20 14,7 C 77 % 1020,2 hPa 0,0 l/m 1,3 km/h (1 Bft) N-NW 331 10,7 C 14,7 C 4,8 km/h (1 Bft)
24.09.2017 18:15 14,8 C 76 % 1020,2 hPa 0,0 l/m 0,6 km/h (0 Bft) N-NW 331 10,6 C 14,8 C 3,2 km/h (1 Bft)
24.09.2017 18:10 14,9 C 77 % 1020,1 hPa 0,0 l/m 0,3 km/h (0 Bft) N-NW 331 10,9 C 14,9 C 3,2 km/h (1 Bft)
24.09.2017 18:05 14,9 C 77 % 1020,2 hPa 0,0 l/m 0,5 km/h (0 Bft) N-NW 331 10,9 C 14,9 C 3,2 km/h (1 Bft)
24.09.2017 18:01 15,0 C 78 % 1020,1 hPa 0,0 l/m 2,8 km/h (1 Bft) N-NW 331 11,2 C 15,0 C 4,8 km/h (1 Bft)
24.09.2017 17:55 15,1 C 77 % 1020,2 hPa 0,0 l/m 4,1 km/h (1 Bft) N-NW 331 11,1 C 15,1 C 6,4 km/h (2 Bft)
24.09.2017 17:50 15,1 C 76 % 1020,2 hPa 0,0 l/m 4,3 km/h (1 Bft) N-NW 333 10,9 C 15,1 C 6,4 km/h (2 Bft)
24.09.2017 17:46 15,1 C 75 % 1020,2 hPa 0,0 l/m 2,9 km/h (1 Bft) N-NO 27 10,7 C 15,1 C 4,8 km/h (1 Bft)
24.09.2017 17:40 15,2 C 75 % 1020,2 hPa 0,0 l/m 2,6 km/h (1 Bft) N-NO 27 10,8 C 15,2 C 4,8 km/h (1 Bft)
24.09.2017 17:35 15,3 C 75 % 1020,2 hPa 0,0 l/m 2,3 km/h (1 Bft) N-NO 27 10,9 C 15,3 C 4,8 km/h (1 Bft)
24.09.2017 17:30 15,4 C 74 % 1020,2 hPa 0,0 l/m 2,0 km/h (1 Bft) N-NO 27 10,8 C 15,4 C 6,4 km/h (2 Bft)
24.09.2017 17:25 15,4 C 73 % 1020,1 hPa 0,0 l/m 3,5 km/h (1 Bft) N-NO 27 10,6 C 15,4 C 6,4 km/h (2 Bft)
24.09.2017 17:20 15,5 C 73 % 1020,1 hPa 0,0 l/m 4,4 km/h (1 Bft) N-NO 28 10,7 C 15,5 C 8,0 km/h (2 Bft)
24.09.2017 17:15 15,7 C 73 % 1020,1 hPa 0,0 l/m 4,5 km/h (1 Bft) N-NO 25 10,9 C 15,7 C 8,0 km/h (2 Bft)
24.09.2017 17:10 15,8 C 73 % 1020,0 hPa 0,0 l/m 4,1 km/h (1 Bft) N-NO 26 11,0 C 15,8 C 8,0 km/h (2 Bft)
24.09.2017 17:05 15,9 C 73 % 1020,0 hPa 0,0 l/m 3,6 km/h (1 Bft) N-NO 22 11,1 C 15,9 C 6,4 km/h (2 Bft)
24.09.2017 17:00 16,0 C 73 % 1019,9 hPa 0,0 l/m 6,7 km/h (2 Bft) O-NO 57 11,2 C 15,8 C 11,3 km/h (2 Bft)
24.09.2017 16:55 16,1 C 72 % 1019,9 hPa 0,0 l/m 8,5 km/h (2 Bft) O-NO 65 11,0 C 15,0 C 12,9 km/h (3 Bft)
24.09.2017 16:51 16,2 C 73 % 1020,0 hPa 0,0 l/m 7,5 km/h (2 Bft) NO 40 11,4 C 15,6 C 12,9 km/h (3 Bft)
24.09.2017 16:45 16,2 C 68 % 1020,0 hPa 0,0 l/m 4,6 km/h (1 Bft) O-NO 70 10,3 C 16,2 C 8,0 km/h (2 Bft)
24.09.2017 16:40 16,2 C 66 % 1020,0 hPa 0,0 l/m 2,7 km/h (1 Bft) O-NO 70 9,8 C 16,2 C 6,4 km/h (2 Bft)
24.09.2017 16:35 16,3 C 65 % 1020,0 hPa 0,0 l/m 2,6 km/h (1 Bft) O-NO 70 9,7 C 16,3 C 4,8 km/h (1 Bft)
24.09.2017 16:30 16,3 C 67 % 1020,0 hPa 0,0 l/m 3,2 km/h (1 Bft) O-NO 70 10,2 C 16,3 C 6,4 km/h (2 Bft)
24.09.2017 16:25 16,4 C 67 % 1020,0 hPa 0,0 l/m 4,6 km/h (1 Bft) O-NO 70 10,3 C 16,4 C 6,4 km/h (2 Bft)
24.09.2017 16:20 16,5 C 68 % 1020,0 hPa 0,0 l/m 4,7 km/h (1 Bft) O-NO 74 10,6 C 16,5 C 8,0 km/h (2 Bft)
24.09.2017 16:15 16,5 C 64 % 1020,0 hPa 0,0 l/m 2,7 km/h (1 Bft) NO 40 9,7 C 16,5 C 6,4 km/h (2 Bft)
24.09.2017 16:10 16,5 C 65 % 1020,0 hPa 0,0 l/m 1,6 km/h (1 Bft) NO 44 9,9 C 16,5 C 4,8 km/h (1 Bft)
24.09.2017 16:05 16,5 C 66 % 1019,9 hPa 0,0 l/m 3,4 km/h (1 Bft) NO 44 10,1 C 16,5 C 6,4 km/h (2 Bft)
24.09.2017 16:00 16,4 C 67 % 1020,0 hPa 0,0 l/m 3,0 km/h (1 Bft) O-NO 57 10,3 C 16,4 C 4,8 km/h (1 Bft)
24.09.2017 15:55 16,4 C 68 % 1019,9 hPa 0,0 l/m 2,8 km/h (1 Bft) O-NO 57 10,5 C 16,4 C 4,8 km/h (1 Bft)
24.09.2017 15:50 16,4 C 66 % 1020,0 hPa 0,0 l/m 2,8 km/h (1 Bft) O-NO 57 10,0 C 16,4 C 4,8 km/h (1 Bft)
24.09.2017 15:45 16,4 C 67 % 1019,9 hPa 0,0 l/m 2,2 km/h (1 Bft) O-NO 57 10,3 C 16,4 C 3,2 km/h (1 Bft)
24.09.2017 15:40 16,3 C 67 % 1019,9 hPa 0,0 l/m 2,2 km/h (1 Bft) O-NO 57 10,2 C 16,3 C 4,8 km/h (1 Bft)
24.09.2017 15:35 16,3 C 66 % 1020,0 hPa 0,0 l/m 3,2 km/h (1 Bft) O-NO 57 9,9 C 16,3 C 6,4 km/h (2 Bft)
24.09.2017 15:30 16,3 C 66 % 1020,0 hPa 0,0 l/m 3,3 km/h (1 Bft) O-NO 57 9,9 C 16,3 C 6,4 km/h (2 Bft)
24.09.2017 15:26 16,3 C 67 % 1020,0 hPa 0,0 l/m 2,6 km/h (1 Bft) O-NO 57 10,2 C 16,3 C 4,8 km/h (1 Bft)
24.09.2017 15:20 16,3 C 66 % 1020,0 hPa 0,0 l/m 3,8 km/h (1 Bft) NO 56 9,9 C 16,3 C 6,4 km/h (2 Bft)
24.09.2017 15:15 16,3 C 68 % 1020,0 hPa 0,0 l/m 3,2 km/h (1 Bft) NO 34 10,4 C 16,3 C 6,4 km/h (2 Bft)
24.09.2017 15:10 16,3 C 69 % 1020,1 hPa 0,0 l/m 4,3 km/h (1 Bft) N-NO 32 10,6 C 16,3 C 8,0 km/h (2 Bft)
24.09.2017 15:05 16,2 C 68 % 1020,1 hPa 0,0 l/m 3,9 km/h (1 Bft) N-NO 15 10,3 C 16,2 C 6,4 km/h (2 Bft)
24.09.2017 15:00 16,2 C 68 % 1020,0 hPa 0,0 l/m 4,4 km/h (1 Bft) NO 49 10,3 C 16,2 C 6,4 km/h (2 Bft)
24.09.2017 14:55 16,2 C 67 % 1020,0 hPa 0,0 l/m 2,9 km/h (1 Bft) N-NO 23 10,1 C 16,2 C 6,4 km/h (2 Bft)
24.09.2017 14:50 16,2 C 66 % 1020,0 hPa 0,0 l/m 4,7 km/h (1 Bft) N-NO 12 9,8 C 16,2 C 11,3 km/h (2 Bft)
24.09.2017 14:45 16,2 C 67 % 1020,1 hPa 0,0 l/m 5,7 km/h (2 Bft) N-NO 32 10,1 C 16,2 C 9,7 km/h (2 Bft)
24.09.2017 14:40 16,3 C 69 % 1020,0 hPa 0,0 l/m 4,1 km/h (1 Bft) O-NO 65 10,6 C 16,3 C 8,0 km/h (2 Bft)
24.09.2017 14:35 16,2 C 70 % 1020,1 hPa 0,0 l/m 4,4 km/h (1 Bft) N 11 10,7 C 16,2 C 8,0 km/h (2 Bft)
24.09.2017 14:30 16,1 C 74 % 1020,1 hPa 0,0 l/m 3,4 km/h (1 Bft) N-NO 30 11,5 C 16,1 C 6,4 km/h (2 Bft)
24.09.2017 14:25 15,7 C 74 % 1020,2 hPa 0,0 l/m 5,5 km/h (2 Bft) N 360 11,1 C 15,7 C 8,0 km/h (2 Bft)
24.09.2017 14:20 15,5 C 73 % 1020,1 hPa 0,0 l/m 3,8 km/h (1 Bft) N 355 10,7 C 15,5 C 8,0 km/h (2 Bft)
24.09.2017 14:15 15,5 C 72 % 1020,1 hPa 0,0 l/m 4,7 km/h (1 Bft) NO 35 10,5 C 15,5 C 9,7 km/h (2 Bft)
24.09.2017 14:10 15,5 C 70 % 1020,1 hPa 0,0 l/m 5,8 km/h (2 Bft) N-NO 17 10,1 C 15,5 C 11,3 km/h (2 Bft)
24.09.2017 14:05 15,6 C 70 % 1020,1 hPa 0,0 l/m 5,6 km/h (2 Bft) NO 42 10,1 C 15,6 C 9,7 km/h (2 Bft)
24.09.2017 14:01 15,8 C 71 % 1020,2 hPa 0,0 l/m 5,0 km/h (1 Bft) NO 38 10,6 C 15,8 C 9,7 km/h (2 Bft)
24.09.2017 13:55 16,0 C 69 % 1020,1 hPa 0,0 l/m 4,3 km/h (1 Bft) N-NO 19 10,3 C 16,0 C 9,7 km/h (2 Bft)
24.09.2017 13:50 16,2 C 69 % 1020,1 hPa 0,0 l/m 5,6 km/h (2 Bft) NO 35 10,5 C 16,2 C 12,9 km/h (3 Bft)
24.09.2017 13:46 16,3 C 69 % 1020,1 hPa 0,0 l/m 5,1 km/h (1 Bft) N-NW 331 10,6 C 16,3 C 8,0 km/h (2 Bft)
24.09.2017 13:40 16,7 C 67 % 1020,1 hPa 0,0 l/m 6,9 km/h (2 Bft) NW 317 10,5 C 16,4 C 12,9 km/h (3 Bft)
24.09.2017 13:35 17,0 C 67 % 1020,1 hPa 0,0 l/m 6,4 km/h (2 Bft) N-NW 338 10,8 C 17,0 C 9,7 km/h (2 Bft)
24.09.2017 13:30 17,2 C 62 % 1020,1 hPa 0,0 l/m 5,2 km/h (1 Bft) N-NW 328 9,9 C 17,2 C 6,4 km/h (2 Bft)
24.09.2017 13:25 17,4 C 62 % 1020,1 hPa 0,0 l/m 3,1 km/h (1 Bft) N-NW 327 10,0 C 17,4 C 8,0 km/h (2 Bft)
24.09.2017 13:20 17,7 C 61 % 1020,1 hPa 0,0 l/m 2,8 km/h (1 Bft) SO 129 10,1 C 17,7 C 4,8 km/h (1 Bft)
24.09.2017 13:15 17,8 C 59 % 1020,1 hPa 0,0 l/m 1,6 km/h (1 Bft) S-SO 157 9,7 C 17,8 C 3,2 km/h (1 Bft)
24.09.2017 13:10 18,0 C 61 % 1020,2 hPa 0,0 l/m 3,0 km/h (1 Bft) O-SO 104 10,4 C 18,0 C 11,3 km/h (2 Bft)
24.09.2017 13:05 18,2 C 62 % 1020,3 hPa 0,0 l/m 5,2 km/h (1 Bft) O 101 10,8 C 18,2 C 9,7 km/h (2 Bft)
24.09.2017 13:00 18,1 C 63 % 1020,2 hPa 0,0 l/m 10,9 km/h (2 Bft) SO 125 10,9 C 16,2 C 16,1 km/h (3 Bft)
24.09.2017 12:55 17,9 C 67 % 1020,1 hPa 0,0 l/m 9,3 km/h (2 Bft) O-SO 105 11,7 C 16,6 C 14,5 km/h (3 Bft)
24.09.2017 12:50 17,6 C 66 % 1020,2 hPa 0,0 l/m 10,1 km/h (2 Bft) O-SO 117 11,2 C 16,0 C 14,5 km/h (3 Bft)
24.09.2017 12:45 17,3 C 65 % 1020,2 hPa 0,0 l/m 6,0 km/h (2 Bft) O-SO 119 10,7 C 17,3 C 16,1 km/h (3 Bft)
24.09.2017 12:40 17,2 C 64 % 1020,2 hPa 0,0 l/m 7,4 km/h (2 Bft) NO 47 10,3 C 16,7 C 14,5 km/h (3 Bft)
24.09.2017 12:35 17,4 C 65 % 1020,3 hPa 0,0 l/m 3,1 km/h (1 Bft) O 80 10,8 C 17,4 C 8,0 km/h (2 Bft)
24.09.2017 12:30 17,4 C 66 % 1020,3 hPa 0,0 l/m 8,0 km/h (2 Bft) SO 131 11,0 C 16,6 C 17,7 km/h (3 Bft)
24.09.2017 12:25 17,2 C 69 % 1020,3 hPa 0,0 l/m 11,3 km/h (2 Bft) O 96 11,5 C 15,1 C 14,5 km/h (3 Bft)
24.09.2017 12:21 17,2 C 66 % 1020,3 hPa 0,0 l/m 5,4 km/h (2 Bft) O-SO 107 10,8 C 17,2 C 14,5 km/h (3 Bft)
24.09.2017 12:15 17,4 C 66 % 1020,3 hPa 0,0 l/m 11,4 km/h (2 Bft) O-NO 76 11,0 C 15,2 C 16,1 km/h (3 Bft)
24.09.2017 12:10 17,7 C 65 % 1020,4 hPa 0,0 l/m 4,7 km/h (1 Bft) O 88 11,0 C 17,7 C 11,3 km/h (2 Bft)
24.09.2017 12:05 17,8 C 66 % 1020,4 hPa 0,0 l/m 7,2 km/h (2 Bft) O 85 11,4 C 17,4 C 11,3 km/h (2 Bft)
24.09.2017 12:01 17,8 C 69 % 1020,4 hPa 0,0 l/m 10,3 km/h (2 Bft) O 93 12,0 C 16,1 C 14,5 km/h (3 Bft)
24.09.2017 11:55 17,7 C 68 % 1020,4 hPa 0,0 l/m 5,7 km/h (2 Bft) O 88 11,7 C 17,7 C 11,3 km/h (2 Bft)
24.09.2017 11:50 17,5 C 69 % 1020,5 hPa 0,0 l/m 5,8 km/h (2 Bft) SO 128 11,7 C 17,5 C 11,3 km/h (2 Bft)
24.09.2017 11:46 17,5 C 70 % 1020,5 hPa 0,0 l/m 6,7 km/h (2 Bft) NO 49 12,0 C 17,4 C 12,9 km/h (3 Bft)
24.09.2017 11:40 17,3 C 68 % 1020,5 hPa 0,0 l/m 4,4 km/h (1 Bft) O-NO 58 11,3 C 17,3 C 9,7 km/h (2 Bft)
24.09.2017 11:35 17,2 C 73 % 1020,6 hPa 0,0 l/m 6,2 km/h (2 Bft) O 98 12,3 C 17,2 C 12,9 km/h (3 Bft)
24.09.2017 11:30 17,2 C 71 % 1020,6 hPa 0,0 l/m 5,0 km/h (1 Bft) O-NO 66 11,9 C 17,2 C 9,7 km/h (2 Bft)
24.09.2017 11:25 17,1 C 70 % 1020,7 hPa 0,0 l/m 2,6 km/h (1 Bft) O-SO 105 11,6 C 17,1 C 6,4 km/h (2 Bft)
24.09.2017 11:21 16,9 C 72 % 1020,7 hPa 0,0 l/m 3,7 km/h (1 Bft) N 355 11,8 C 16,9 C 8,0 km/h (2 Bft)
24.09.2017 11:15 17,1 C 70 % 1020,7 hPa 0,0 l/m 4,7 km/h (1 Bft) NO 53 11,6 C 17,1 C 8,0 km/h (2 Bft)
24.09.2017 11:10 16,9 C 73 % 1020,8 hPa 0,0 l/m 3,7 km/h (1 Bft) O 101 12,0 C 16,9 C 6,4 km/h (2 Bft)
24.09.2017 11:05 16,7 C 72 % 1020,7 hPa 0,0 l/m 4,1 km/h (1 Bft) O-NO 78 11,6 C 16,7 C 6,4 km/h (2 Bft)
24.09.2017 11:00 16,5 C 72 % 1020,7 hPa 0,0 l/m 3,5 km/h (1 Bft) O-NO 65 11,4 C 16,5 C 8,0 km/h (2 Bft)
24.09.2017 10:55 16,3 C 75 % 1020,7 hPa 0,0 l/m 3,1 km/h (1 Bft) O-NO 65 11,9 C 16,3 C 6,4 km/h (2 Bft)
24.09.2017 10:50 16,1 C 73 % 1020,7 hPa 0,0 l/m 4,8 km/h (1 Bft) O-NO 66 11,3 C 16,1 C 8,0 km/h (2 Bft)
24.09.2017 10:45 16,1 C 76 % 1020,7 hPa 0,0 l/m 5,0 km/h (1 Bft) O 91 11,9 C 16,1 C 9,7 km/h (2 Bft)
24.09.2017 10:40 15,9 C 77 % 1020,7 hPa 0,0 l/m 4,7 km/h (1 Bft) O 94 11,9 C 15,9 C 9,7 km/h (2 Bft)
24.09.2017 10:35 15,7 C 77 % 1020,7 hPa 0,0 l/m 4,0 km/h (1 Bft) O 95 11,7 C 15,7 C 6,4 km/h (2 Bft)
24.09.2017 10:30 15,5 C 78 % 1020,7 hPa 0,0 l/m 2,2 km/h (1 Bft) O 95 11,7 C 15,5 C 6,4 km/h (2 Bft)
24.09.2017 10:25 15,3 C 76 % 1020,7 hPa 0,0 l/m 3,6 km/h (1 Bft) O 95 11,1 C 15,3 C 6,4 km/h (2 Bft)
24.09.2017 10:20 15,1 C 79 % 1020,7 hPa 0,0 l/m 3,7 km/h (1 Bft) O 100 11,5 C 15,1 C 6,4 km/h (2 Bft)
24.09.2017 10:15 14,9 C 80 % 1020,7 hPa 0,0 l/m 4,3 km/h (1 Bft) O 101 11,5 C 14,9 C 6,4 km/h (2 Bft)
24.09.2017 10:11 14,7 C 80 % 1020,6 hPa 0,0 l/m 3,7 km/h (1 Bft) O 101 11,3 C 14,7 C 4,8 km/h (1 Bft)
24.09.2017 10:05 14,4 C 81 % 1020,6 hPa 0,0 l/m 3,7 km/h (1 Bft) O 101 11,2 C 14,4 C 4,8 km/h (1 Bft)
24.09.2017 10:00 14,3 C 83 % 1020,6 hPa 0,0 l/m 4,5 km/h (1 Bft) O 101 11,5 C 14,3 C 6,4 km/h (2 Bft)
24.09.2017 09:55 13,9 C 85 % 1020,6 hPa 0,0 l/m 3,3 km/h (1 Bft) O 90 11,4 C 13,9 C 6,4 km/h (2 Bft)
24.09.2017 09:50 13,5 C 87 % 1020,5 hPa 0,0 l/m 4,5 km/h (1 Bft) O 88 11,4 C 13,5 C 6,4 km/h (2 Bft)
24.09.2017 09:45 13,1 C 91 % 1020,6 hPa 0,0 l/m 3,4 km/h (1 Bft) O-NO 67 11,7 C 13,1 C 4,8 km/h (1 Bft)
24.09.2017 09:41 12,7 C 93 % 1020,5 hPa 0,0 l/m 3,4 km/h (1 Bft) O-NO 62 11,6 C 12,7 C 4,8 km/h (1 Bft)
24.09.2017 09:35 12,1 C 95 % 1020,6 hPa 0,0 l/m 3,0 km/h (1 Bft) N 351 11,3 C 12,1 C 4,8 km/h (1 Bft)
24.09.2017 09:30 11,7 C 96 % 1020,5 hPa 0,0 l/m 2,4 km/h (1 Bft) W 278 11,1 C 11,7 C 4,8 km/h (1 Bft)
24.09.2017 09:25 11,3 C 97 % 1020,5 hPa 0,0 l/m 0,0 km/h (0 Bft) W-SW 246 10,8 C 11,3 C 0,0 km/h (0 Bft)
24.09.2017 09:20 10,9 C 97 % 1020,5 hPa 0,0 l/m 0,0 km/h (0 Bft) W-SW 246 10,4 C 10,9 C 0,0 km/h (0 Bft)
24.09.2017 09:15 10,7 C 97 % 1020,5 hPa 0,0 l/m 0,1 km/h (0 Bft) W-SW 246 10,2 C 10,7 C 1,6 km/h (1 Bft)
24.09.2017 09:10 10,3 C 97 % 1020,5 hPa 0,0 l/m 1,3 km/h (1 Bft) W-SW 246 9,8 C 10,3 C 3,2 km/h (1 Bft)
24.09.2017 09:05 10,0 C 97 % 1020,4 hPa 0,0 l/m 1,0 km/h (0 Bft) W-SW 246 9,5 C 10,0 C 3,2 km/h (1 Bft)
24.09.2017 09:00 9,7 C 97 % 1020,3 hPa 0,0 l/m 0,0 km/h (0 Bft) W-SW 246 9,2 C 9,7 C 0,0 km/h (0 Bft)
24.09.2017 08:55 9,4 C 97 % 1020,3 hPa 0,0 l/m 0,6 km/h (0 Bft) W-SW 246 8,9 C 9,4 C 1,6 km/h (1 Bft)
24.09.2017 08:50 9,1 C 97 % 1020,3 hPa 0,0 l/m 2,0 km/h (1 Bft) W-SW 246 8,6 C 9,1 C 3,2 km/h (1 Bft)
24.09.2017 08:45 8,8 C 97 % 1020,2 hPa 0,0 l/m 2,8 km/h (1 Bft) W-SW 246 8,4 C 8,8 C 3,2 km/h (1 Bft)
24.09.2017 08:40 8,4 C 97 % 1020,2 hPa 0,0 l/m 2,3 km/h (1 Bft) W-SW 246 8,0 C 8,4 C 3,2 km/h (1 Bft)
24.09.2017 08:35 8,2 C 97 % 1020,1 hPa 0,0 l/m 3,9 km/h (1 Bft) W-SW 246 7,8 C 8,2 C 4,8 km/h (1 Bft)
24.09.2017 08:31 7,9 C 97 % 1020,1 hPa 0,0 l/m 4,9 km/h (1 Bft) W-SW 246 7,5 C 7,9 C 6,4 km/h (2 Bft)
24.09.2017 08:25 7,7 C 97 % 1020,0 hPa 0,0 l/m 7,1 km/h (2 Bft) W-SW 246 7,3 C 7,1 C 8,0 km/h (2 Bft)
24.09.2017 08:20 7,6 C 96 % 1020,1 hPa 0,0 l/m 6,8 km/h (2 Bft) W-SW 246 7,0 C 7,3 C 8,0 km/h (2 Bft)
24.09.2017 08:15 7,4 C 96 % 1020,0 hPa 0,0 l/m 5,9 km/h (2 Bft) W-SW 244 6,8 C 7,4 C 6,4 km/h (2 Bft)
24.09.2017 08:10 7,4 C 96 % 1019,9 hPa 0,0 l/m 4,9 km/h (1 Bft) W-SW 248 6,8 C 7,4 C 6,4 km/h (2 Bft)
24.09.2017 08:05 7,3 C 96 % 1019,9 hPa 0,0 l/m 5,2 km/h (1 Bft) W-SW 248 6,7 C 7,3 C 6,4 km/h (2 Bft)
24.09.2017 08:00 7,3 C 96 % 1019,8 hPa 0,0 l/m 4,7 km/h (1 Bft) W-SW 248 6,7 C 7,3 C 6,4 km/h (2 Bft)
24.09.2017 07:55 7,2 C 96 % 1019,8 hPa 0,0 l/m 4,7 km/h (1 Bft) W-SW 248 6,6 C 7,2 C 6,4 km/h (2 Bft)
24.09.2017 07:50 7,0 C 96 % 1019,8 hPa 0,0 l/m 5,7 km/h (2 Bft) W-SW 248 6,4 C 7,0 C 8,0 km/h (2 Bft)
24.09.2017 07:45 7,0 C 96 % 1019,8 hPa 0,0 l/m 5,4 km/h (2 Bft) W-SW 248 6,4 C 7,0 C 6,4 km/h (2 Bft)
24.09.2017 07:40 6,9 C 96 % 1019,7 hPa 0,0 l/m 4,8 km/h (1 Bft) W-SW 248 6,3 C 6,9 C 6,4 km/h (2 Bft)
24.09.2017 07:35 6,9 C 96 % 1019,7 hPa 0,0 l/m 6,8 km/h (2 Bft) W-SW 248 6,3 C 6,6 C 11,3 km/h (2 Bft)
24.09.2017 07:30 6,9 C 96 % 1019,6 hPa 0,0 l/m 7,4 km/h (2 Bft) W-SW 248 6,3 C 6,1 C 8,0 km/h (2 Bft)
24.09.2017 07:25 6,9 C 95 % 1019,6 hPa 0,0 l/m 6,5 km/h (2 Bft) W-SW 249 6,2 C 6,8 C 8,0 km/h (2 Bft)
24.09.2017 07:20 7,1 C 96 % 1019,5 hPa 0,0 l/m 3,6 km/h (1 Bft) W-SW 248 6,5 C 7,1 C 6,4 km/h (2 Bft)
24.09.2017 07:15 7,2 C 96 % 1019,5 hPa 0,0 l/m 0,3 km/h (0 Bft) W-SW 248 6,6 C 7,2 C 3,2 km/h (1 Bft)
24.09.2017 07:10 7,2 C 96 % 1019,5 hPa 0,0 l/m 0,0 km/h (0 Bft) W-SW 248 6,6 C 7,2 C 1,6 km/h (1 Bft)
24.09.2017 07:05 7,3 C 96 % 1019,5 hPa 0,0 l/m 1,2 km/h (1 Bft) W-SW 248 6,7 C 7,3 C 3,2 km/h (1 Bft)
24.09.2017 07:00 7,3 C 96 % 1019,5 hPa 0,0 l/m 4,9 km/h (1 Bft) W-SW 248 6,7 C 7,3 C 8,0 km/h (2 Bft)
24.09.2017 06:55 7,4 C 96 % 1019,4 hPa 0,0 l/m 5,7 km/h (2 Bft) W-SW 248 6,8 C 7,4 C 8,0 km/h (2 Bft)
24.09.2017 06:50 7,6 C 96 % 1019,4 hPa 0,0 l/m 4,8 km/h (1 Bft) W-SW 248 7,0 C 7,6 C 6,4 km/h (2 Bft)
24.09.2017 06:45 7,5 C 96 % 1019,4 hPa 0,0 l/m 4,9 km/h (1 Bft) W-SW 248 6,9 C 7,5 C 6,4 km/h (2 Bft)
24.09.2017 06:40 7,5 C 96 % 1019,4 hPa 0,0 l/m 6,0 km/h (2 Bft) W-SW 248 6,9 C 7,5 C 8,0 km/h (2 Bft)
24.09.2017 06:35 7,6 C 96 % 1019,4 hPa 0,0 l/m 7,4 km/h (2 Bft) W-SW 248 7,0 C 6,8 C 11,3 km/h (2 Bft)
24.09.2017 06:30 7,6 C 96 % 1019,4 hPa 0,0 l/m 6,6 km/h (2 Bft) W-SW 248 7,0 C 7,5 C 8,0 km/h (2 Bft)
24.09.2017 06:25 7,6 C 96 % 1019,3 hPa 0,0 l/m 5,0 km/h (1 Bft) W-SW 248 7,0 C 7,6 C 6,4 km/h (2 Bft)
24.09.2017 06:20 7,7 C 96 % 1019,4 hPa 0,0 l/m 4,1 km/h (1 Bft) W-SW 248 7,1 C 7,7 C 4,8 km/h (1 Bft)
24.09.2017 06:15 7,7 C 96 % 1019,3 hPa 0,0 l/m 4,2 km/h (1 Bft) W-SW 248 7,1 C 7,7 C 6,4 km/h (2 Bft)
24.09.2017 06:10 7,7 C 96 % 1019,3 hPa 0,0 l/m 5,5 km/h (2 Bft) W-SW 248 7,1 C 7,7 C 6,4 km/h (2 Bft)
24.09.2017 06:05 7,6 C 96 % 1019,3 hPa 0,0 l/m 5,1 km/h (1 Bft) W-SW 248 7,0 C 7,6 C 8,0 km/h (2 Bft)
24.09.2017 06:00 7,5 C 95 % 1019,3 hPa 0,0 l/m 6,7 km/h (2 Bft) W-SW 248 6,8 C 7,3 C 11,3 km/h (2 Bft)
24.09.2017 05:55 7,6 C 95 % 1019,3 hPa 0,0 l/m 8,1 km/h (2 Bft) W-SW 248 6,9 C 6,3 C 11,3 km/h (2 Bft)
24.09.2017 05:50 7,6 C 95 % 1019,3 hPa 0,0 l/m 4,3 km/h (1 Bft) W-SW 248 6,9 C 7,6 C 6,4 km/h (2 Bft)
24.09.2017 05:45 7,6 C 95 % 1019,4 hPa 0,0 l/m 5,5 km/h (2 Bft) W-SW 248 6,9 C 7,6 C 6,4 km/h (2 Bft)
24.09.2017 05:40 7,7 C 95 % 1019,4 hPa 0,0 l/m 4,2 km/h (1 Bft) W-SW 248 7,0 C 7,7 C 4,8 km/h (1 Bft)
24.09.2017 05:35 7,9 C 95 % 1019,3 hPa 0,0 l/m 4,1 km/h (1 Bft) W-SW 248 7,1 C 7,9 C 6,4 km/h (2 Bft)
24.09.2017 05:30 8,0 C 96 % 1019,4 hPa 0,0 l/m 3,9 km/h (1 Bft) W-SW 248 7,4 C 8,0 C 4,8 km/h (1 Bft)
24.09.2017 05:25 7,9 C 96 % 1019,4 hPa 0,0 l/m 3,7 km/h (1 Bft) W-SW 248 7,3 C 7,9 C 4,8 km/h (1 Bft)
24.09.2017 05:20 7,8 C 95 % 1019,4 hPa 0,0 l/m 4,9 km/h (1 Bft) W-SW 248 7,0 C 7,8 C 6,4 km/h (2 Bft)
24.09.2017 05:15 7,7 C 95 % 1019,4 hPa 0,0 l/m 4,9 km/h (1 Bft) W-SW 248 7,0 C 7,7 C 6,4 km/h (2 Bft)
24.09.2017 05:10 7,7 C 95 % 1019,5 hPa 0,0 l/m 5,1 km/h (1 Bft) W-SW 248 7,0 C 7,7 C 6,4 km/h (2 Bft)
24.09.2017 05:05 7,8 C 95 % 1019,5 hPa 0,0 l/m 3,3 km/h (1 Bft) W-SW 248 7,0 C 7,8 C 4,8 km/h (1 Bft)
24.09.2017 05:00 7,8 C 95 % 1019,4 hPa 0,0 l/m 2,5 km/h (1 Bft) W-SW 248 7,0 C 7,8 C 3,2 km/h (1 Bft)
24.09.2017 04:55 8,0 C 95 % 1019,4 hPa 0,0 l/m 3,2 km/h (1 Bft) W-SW 248 7,2 C 8,0 C 4,8 km/h (1 Bft)
24.09.2017 04:50 8,1 C 95 % 1019,5 hPa 0,0 l/m 2,3 km/h (1 Bft) W-SW 248 7,3 C 8,1 C 3,2 km/h (1 Bft)
24.09.2017 04:45 8,1 C 95 % 1019,5 hPa 0,0 l/m 4,2 km/h (1 Bft) W-SW 248 7,3 C 8,1 C 6,4 km/h (2 Bft)
24.09.2017 04:40 8,1 C 95 % 1019,4 hPa 0,0 l/m 6,0 km/h (2 Bft) W-SW 248 7,3 C 8,1 C 8,0 km/h (2 Bft)
24.09.2017 04:35 8,1 C 95 % 1019,5 hPa 0,0 l/m 4,7 km/h (1 Bft) W-SW 248 7,3 C 8,1 C 6,4 km/h (2 Bft)
24.09.2017 04:30 8,2 C 95 % 1019,4 hPa 0,0 l/m 5,2 km/h (1 Bft) W-SW 248 7,4 C 8,2 C 6,4 km/h (2 Bft)
24.09.2017 04:25 8,2 C 95 % 1019,5 hPa 0,0 l/m 5,1 km/h (1 Bft) W-SW 248 7,4 C 8,2 C 6,4 km/h (2 Bft)
24.09.2017 04:20 8,3 C 95 % 1019,5 hPa 0,0 l/m 5,3 km/h (1 Bft) W-SW 248 7,5 C 8,3 C 6,4 km/h (2 Bft)
24.09.2017 04:15 8,4 C 95 % 1019,4 hPa 0,0 l/m 4,9 km/h (1 Bft) W-SW 248 7,6 C 8,4 C 6,4 km/h (2 Bft)
24.09.2017 04:10 8,3 C 94 % 1019,4 hPa 0,0 l/m 4,8 km/h (1 Bft) W-SW 248 7,4 C 8,3 C 6,4 km/h (2 Bft)
24.09.2017 04:05 8,3 C 94 % 1019,4 hPa 0,0 l/m 5,6 km/h (2 Bft) W-SW 248 7,4 C 8,3 C 6,4 km/h (2 Bft)
24.09.2017 04:00 8,3 C 94 % 1019,3 hPa 0,0 l/m 5,3 km/h (1 Bft) W-SW 248 7,4 C 8,3 C 6,4 km/h (2 Bft)
24.09.2017 03:55 8,4 C 94 % 1019,3 hPa 0,0 l/m 4,6 km/h (1 Bft) W-SW 248 7,5 C 8,4 C 6,4 km/h (2 Bft)
24.09.2017 03:50 8,4 C 94 % 1019,3 hPa 0,0 l/m 5,5 km/h (2 Bft) W-SW 248 7,5 C 8,4 C 6,4 km/h (2 Bft)
24.09.2017 03:45 8,6 C 94 % 1019,3 hPa 0,0 l/m 5,1 km/h (1 Bft) W-SW 248 7,7 C 8,6 C 6,4 km/h (2 Bft)
24.09.2017 03:40 8,7 C 94 % 1019,2 hPa 0,0 l/m 5,0 km/h (1 Bft) W-SW 248 7,8 C 8,7 C 6,4 km/h (2 Bft)
24.09.2017 03:35 8,7 C 94 % 1019,3 hPa 0,0 l/m 4,2 km/h (1 Bft) W-SW 248 7,8 C 8,7 C 4,8 km/h (1 Bft)
24.09.2017 03:30 8,7 C 94 % 1019,3 hPa 0,0 l/m 4,0 km/h (1 Bft) W-SW 248 7,8 C 8,7 C 6,4 km/h (2 Bft)
24.09.2017 03:25 8,8 C 94 % 1019,4 hPa 0,0 l/m 4,9 km/h (1 Bft) W-SW 248 7,9 C 8,8 C 6,4 km/h (2 Bft)
24.09.2017 03:20 9,0 C 94 % 1019,4 hPa 0,0 l/m 5,6 km/h (2 Bft) W-SW 248 8,1 C 9,0 C 6,4 km/h (2 Bft)
24.09.2017 03:15 9,1 C 94 % 1019,4 hPa 0,0 l/m 3,8 km/h (1 Bft) W-SW 248 8,2 C 9,1 C 4,8 km/h (1 Bft)
24.09.2017 03:10 9,1 C 94 % 1019,5 hPa 0,0 l/m 3,7 km/h (1 Bft) W-SW 248 8,2 C 9,1 C 4,8 km/h (1 Bft)
24.09.2017 03:05 9,0 C 94 % 1019,5 hPa 0,0 l/m 3,1 km/h (1 Bft) W-SW 248 8,1 C 9,0 C 4,8 km/h (1 Bft)
24.09.2017 03:00 9,0 C 94 % 1019,5 hPa 0,0 l/m 3,9 km/h (1 Bft) W-SW 248 8,1 C 9,0 C 4,8 km/h (1 Bft)
_ Min-Zeit 07:40 13:15 03:40 - 02:35 - - 02:30 07:30 02:35
Minimum _ 6,9 C 59 % 1019,2 hPa - 0,0 km/h (0 Bft) - - 6,0 C 6,1 C 0,0 km/h (0 Bft)
_ Max-Zeit 13:05 09:25 21:55 02:40 12:15 - - 11:35 13:05 12:30
Maximum _ 18,2 C 97 % 1021,1 hPa 0,0 l/m 11,4 km/h
O-NO (2 Bft)
- - 12,3 C 18,2 C 17,7 km/h
S-SO (3 Bft)
Durchschnitt _ 11,8 C 84 % 1020,2 hPa #0,0 l/m 3,8 km/h (1 Bft) W-SW - 9,0 C 11,8 C 6,3 km/h (2 Bft)